Time;durP1;ratioP1;P1;durP2;ratioP2;P2;SDS_P1;SDS_P2;PMS_P1;PMS_P2;Temp;Humidity;BMP_temperature;BMP_pressure;BME280_temperature;BME280_humidity;BME280_pressure;Samples;Min_cycle;Max_cycle;Signal;HPM_P1;HPM_P2
2022/10/14 00:01:00;;;;;;;;;;;;;;;12.41;76.94;101091.38;5056283;28;20489;-70
2022/10/14 00:03:26;;;;;;;;;;;;;;;12.52;76.82;101102.19;5066300;28;19932;-70
2022/10/14 00:05:53;;;;;;;;;;;;;;;12.55;76.47;101102.00;5067667;28;20294;-70
2022/10/14 00:08:19;;;;;;;;;;;;;;;12.46;77.11;101109.53;5058006;28;19924;-70
2022/10/14 00:10:45;;;;;;;;;;;;;;;12.65;76.12;101103.19;5065236;28;19928;-70
2022/10/14 00:13:12;;;;;;;;;;;;;;;12.76;75.68;101096.50;5067378;28;19935;-70
2022/10/14 00:15:40;;;;;;;;;;;;;;;12.80;75.45;101098.03;5056000;28;19924;-70
2022/10/14 00:18:06;;;;;;;;;;;;;;;13.01;74.93;101110.84;5066229;28;19924;-70
2022/10/14 00:20:33;;;;;;;;;;;;;;;12.93;75.09;101104.31;5067561;28;19938;-70
2022/10/14 00:23:00;;;;;;;;;;;;;;;13.07;74.96;101104.41;5056045;28;20298;-70
2022/10/14 00:25:27;;;;;;;;;;;;;;;13.18;74.85;101099.41;5076702;28;19928;-70
2022/10/14 00:27:53;;;;;;;;;;;;;;;13.30;73.89;101092.59;5069339;28;20023;-70
2022/10/14 00:30:19;;;;;;;;;;;;;;;13.30;74.14;101093.47;5060021;28;19931;-70
2022/10/14 00:32:47;;;;;;;;;;;;;;;13.37;73.88;101092.16;5070752;28;19950;-70
2022/10/14 00:35:13;;;;;;;;;;;;;;;13.23;73.94;101091.25;5071362;28;19924;-70
2022/10/14 00:37:40;;;;;;;;;;;;;;;13.14;74.35;101100.53;5062232;28;19924;-70
2022/10/14 00:40:06;;;;;;;;;;;;;;;13.06;75.17;101100.06;5066704;28;19924;-70
2022/10/14 00:42:33;;;;;;;;;;;;;;;13.17;74.75;101087.19;5069319;28;19924;-70
2022/10/14 00:45:01;;;;;;;;;;;;;;;13.34;74.04;101078.31;5060219;28;19924;-70
2022/10/14 00:47:27;;;;;;;;;;;;;;;13.43;73.69;101083.91;5070878;28;19924;-70
2022/10/14 00:49:56;;;;;;;;;;;;;;;13.27;74.22;101087.47;5069148;28;19924;-70
2022/10/14 00:52:23;;;;;;;;;;;;;;;13.33;74.09;101093.28;5059548;28;19928;-70
2022/10/14 00:54:50;;;;;;;;;;;;;;;13.22;74.38;101090.41;5066330;28;19981;-70
2022/10/14 00:57:17;;;;;;;;;;;;;;;12.90;75.68;101094.81;5070022;28;19924;-70
2022/10/14 00:59:43;;;;;;;;;;;;;;;12.88;76.27;101093.19;5059472;28;19924;-70
2022/10/14 01:02:10;;;;;;;;;;;;;;;12.97;75.51;101090.88;5069430;28;19924;-70
2022/10/14 01:04:38;;;;;;;;;;;;;;;12.96;76.03;101091.84;5072439;28;20351;-70
2022/10/14 01:07:08;;;;;;;;;;;;;;;12.96;75.49;101086.59;5059242;28;20371;-71
2022/10/14 01:09:39;;;;;;;;;;;;;;;12.75;77.18;101084.28;5070945;28;19924;-70
2022/10/14 01:12:09;;;;;;;;;;;;;;;13.15;75.78;101083.78;5070921;28;19924;-70
2022/10/14 01:14:41;;;;;;;;;;;;;;;13.42;75.07;101076.91;5059387;28;19934;-70
2022/10/14 01:17:10;;;;;;;;;;;;;;;13.43;74.27;101075.13;5077351;28;19924;-70
2022/10/14 01:19:44;;;;;;;;;;;;;;;13.54;74.10;101078.84;5061185;28;19931;-70
2022/10/14 01:22:16;;;;;;;;;;;;;;;13.36;75.15;101073.81;5069926;28;19931;-70
2022/10/14 01:24:44;;;;;;;;;;;;;;;13.29;75.56;101075.94;5065987;28;19924;-70
2022/10/14 01:27:17;;;;;;;;;;;;;;;13.31;75.47;101079.34;5059515;28;19931;-70
2022/10/14 01:30:01;;;;;;;;;;;;;;;13.25;75.75;101079.69;5068533;28;19924;-70
2022/10/14 01:32:30;;;;;;;;;;;;;;;13.02;76.89;101083.59;5058742;28;19928;-70
2022/10/14 01:35:00;;;;;;;;;;;;;;;13.10;76.84;101077.94;5069176;28;19935;-70
2022/10/14 01:37:28;;;;;;;;;;;;;;;12.57;78.79;101081.72;5060624;28;19924;-70
2022/10/14 01:39:57;;;;;;;;;;;;;;;12.77;78.82;101078.00;5061883;28;19931;-70
2022/10/14 01:42:26;;;;;;;;;;;;;;;12.87;78.69;101079.19;5058837;28;19936;-70
2022/10/14 01:44:54;;;;;;;;;;;;;;;12.79;78.81;101070.84;5058234;28;19928;-70
2022/10/14 01:47:22;;;;;;;;;;;;;;;13.07;78.36;101075.44;5068931;28;19927;-70
2022/10/14 01:49:53;;;;;;;;;;;;;;;13.22;77.15;101076.38;5068616;28;20395;-70
2022/10/14 01:52:22;;;;;;;;;;;;;;;13.30;76.26;101069.75;5060840;28;20429;-71
2022/10/14 01:54:51;;;;;;;;;;;;;;;13.22;76.66;101079.03;5064455;28;20372;-70
2022/10/14 01:57:19;;;;;;;;;;;;;;;13.29;76.35;101075.94;5074601;28;20022;-70
2022/10/14 01:59:47;;;;;;;;;;;;;;;13.44;75.66;101079.47;5068731;28;20517;-70
2022/10/14 02:02:13;;;;;;;;;;;;;;;13.58;74.70;101071.63;5068633;28;19932;-70
2022/10/14 02:04:40;;;;;;;;;;;;;;;13.54;75.02;101070.09;5068959;28;20334;-70
2022/10/14 02:07:10;;;;;;;;;;;;;;;13.48;74.76;101073.94;5058464;28;20001;-70
2022/10/14 02:09:41;;;;;;;;;;;;;;;12.83;76.99;101076.78;5066900;28;19936;-70
2022/10/14 02:12:16;;;;;;;;;;;;;;;12.58;78.76;101062.38;5058922;28;19951;-70
2022/10/14 02:14:45;;;;;;;;;;;;;;;12.60;78.34;101060.50;5068400;28;20449;-70
2022/10/14 02:17:18;;;;;;;;;;;;;;;12.64;78.62;101058.53;5069518;28;19942;-70
2022/10/14 02:19:48;;;;;;;;;;;;;;;12.74;78.65;101062.41;5059625;28;19928;-70
2022/10/14 02:22:20;;;;;;;;;;;;;;;13.02;77.26;101059.03;5066787;28;20284;-70
2022/10/14 02:24:47;;;;;;;;;;;;;;;13.15;76.42;101052.19;5058121;28;20304;-70
2022/10/14 02:27:16;;;;;;;;;;;;;;;13.31;75.93;101049.50;5067693;28;19924;-70
2022/10/14 02:29:44;;;;;;;;;;;;;;;13.44;75.48;101050.50;5066985;28;19955;-70
2022/10/14 02:32:10;;;;;;;;;;;;;;;13.57;74.54;101044.41;5060435;28;19932;-70
2022/10/14 02:34:37;;;;;;;;;;;;;;;13.40;74.84;101049.84;5072171;28;19930;-70
2022/10/14 02:37:04;;;;;;;;;;;;;;;13.33;75.33;101053.78;5069045;28;20509;-70
2022/10/14 02:39:35;;;;;;;;;;;;;;;13.35;75.27;101049.25;5057454;28;19932;-70
2022/10/14 02:42:02;;;;;;;;;;;;;;;13.50;74.51;101056.25;5061973;28;19924;-70
2022/10/14 02:44:28;;;;;;;;;;;;;;;13.44;74.69;101050.50;5067938;28;20012;-70
2022/10/14 02:46:55;;;;;;;;;;;;;;;13.52;74.16;101053.53;5065958;28;19946;-70
2022/10/14 02:49:21;;;;;;;;;;;;;;;13.29;74.47;101048.75;5075143;28;20011;-70
2022/10/14 02:51:47;;;;;;;;;;;;;;;13.45;74.17;101045.13;5076945;28;19934;-70
2022/10/14 02:54:14;;;;;;;;;;;;;;;13.34;74.76;101046.72;5062933;28;19928;-70
2022/10/14 02:56:41;;;;;;;;;;;;;;;13.39;74.65;101048.13;5060919;28;19924;-70
2022/10/14 02:59:08;;;;;;;;;;;;;;;13.37;74.85;101039.50;5076070;28;19927;-70
2022/10/14 03:01:34;;;;;;;;;;;;;;;13.40;74.60;101041.94;5066310;28;19928;-70
2022/10/14 03:04:00;;;;;;;;;;;;;;;13.32;74.60;101038.03;5068218;28;19952;-70
2022/10/14 03:06:27;;;;;;;;;;;;;;;13.72;73.00;101026.00;5069485;28;20296;-70
2022/10/14 03:08:53;;;;;;;;;;;;;;;13.38;74.71;101041.16;5062672;28;20223;-70
2022/10/14 03:11:19;;;;;;;;;;;;;;;13.38;75.10;101025.34;5067541;28;19924;-70
2022/10/14 03:13:47;;;;;;;;;;;;;;;13.32;75.26;101036.25;5066659;28;19932;-70
2022/10/14 03:16:13;;;;;;;;;;;;;;;13.19;75.68;101032.66;5072405;28;19928;-70
2022/10/14 03:18:40;;;;;;;;;;;;;;;12.88;76.82;101035.28;5065270;28;20338;-70
2022/10/14 03:21:06;;;;;;;;;;;;;;;12.63;78.21;101031.41;5046848;28;20138;-70
2022/10/14 03:23:32;;;;;;;;;;;;;;;12.58;79.28;101022.06;5049853;28;19928;-69
2022/10/14 03:25:58;;;;;;;;;;;;;;;12.72;79.21;101018.66;5068289;28;19923;-69
2022/10/14 03:28:25;;;;;;;;;;;;;;;12.81;78.84;101021.66;5066909;28;19946;-69
2022/10/14 03:30:52;;;;;;;;;;;;;;;12.69;78.93;101019.69;5059426;28;19932;-70
2022/10/14 03:33:19;;;;;;;;;;;;;;;12.78;79.45;101019.19;5085007;28;19923;-70
2022/10/14 03:35:45;;;;;;;;;;;;;;;13.10;78.29;101017.38;5066091;28;20005;-70
2022/10/14 03:38:11;;;;;;;;;;;;;;;13.33;77.14;101024.81;5069923;28;19931;-70
2022/10/14 03:40:37;;;;;;;;;;;;;;;13.35;76.96;101019.41;5072049;28;20388;-70
2022/10/14 03:43:04;;;;;;;;;;;;;;;13.11;77.71;101008.56;5066015;28;19959;-70
2022/10/14 03:45:30;;;;;;;;;;;;;;;13.28;77.32;101010.19;5072693;28;20296;-71
2022/10/14 03:47:58;;;;;;;;;;;;;;;13.34;76.78;101015.94;5077112;28;19931;-70
2022/10/14 03:50:24;;;;;;;;;;;;;;;13.24;77.24;101009.53;5086266;28;20332;-70
2022/10/14 03:52:50;;;;;;;;;;;;;;;13.21;77.43;101009.72;5078787;28;19931;-70
2022/10/14 03:55:16;;;;;;;;;;;;;;;13.33;76.98;101006.38;5064442;28;19928;-70
2022/10/14 03:57:43;;;;;;;;;;;;;;;13.47;76.57;101008.19;5069771;28;20304;-70
2022/10/14 04:00:11;;;;;;;;;;;;;;;13.54;76.11;101002.44;5078320;28;19928;-70
2022/10/14 04:02:37;;;;;;;;;;;;;;;13.58;75.70;100996.06;5060374;28;19928;-70
2022/10/14 04:05:05;;;;;;;;;;;;;;;13.75;75.21;100999.44;5069957;28;19924;-70
2022/10/14 04:07:32;;;;;;;;;;;;;;;13.85;74.73;100993.56;5073393;28;19924;-70
2022/10/14 04:09:58;;;;;;;;;;;;;;;13.52;75.73;100993.81;5062376;28;19932;-70
2022/10/14 04:12:24;;;;;;;;;;;;;;;13.67;75.78;100997.31;5070931;28;19931;-70
2022/10/14 04:14:51;;;;;;;;;;;;;;;13.71;75.28;101004.06;5078428;28;19928;-70
2022/10/14 04:17:17;;;;;;;;;;;;;;;13.41;76.25;100996.22;5060674;28;19947;-70
2022/10/14 04:19:43;;;;;;;;;;;;;;;13.61;76.02;101005.56;5090039;28;19931;-70
2022/10/14 04:22:11;;;;;;;;;;;;;;;13.76;75.21;100991.47;5077650;28;19931;-70
2022/10/14 04:24:37;;;;;;;;;;;;;;;14.01;74.39;100993.44;5061859;28;19947;-70
2022/10/14 04:27:03;;;;;;;;;;;;;;;13.87;74.84;100988.16;5072742;28;19924;-70
2022/10/14 04:29:30;;;;;;;;;;;;;;;13.83;75.19;100986.66;5080006;28;19947;-70
2022/10/14 04:31:56;;;;;;;;;;;;;;;13.70;75.25;100989.22;5081079;28;19931;-70
2022/10/14 04:34:22;;;;;;;;;;;;;;;13.58;75.11;100987.31;5072759;28;20352;-70
2022/10/14 04:36:48;;;;;;;;;;;;;;;13.57;74.72;100981.19;5070618;28;19924;-70
2022/10/14 04:39:16;;;;;;;;;;;;;;;13.32;75.38;100990.63;5061318;28;19927;-70
2022/10/14 04:41:42;;;;;;;;;;;;;;;13.41;74.88;100996.22;5072009;28;20304;-70
2022/10/14 04:44:09;;;;;;;;;;;;;;;13.51;74.13;100978.94;5090196;28;19931;-70
2022/10/14 04:46:35;;;;;;;;;;;;;;;13.49;73.62;100979.94;5061691;28;20309;-70
2022/10/14 04:49:01;;;;;;;;;;;;;;;13.16;75.10;100982.78;5070312;28;19924;-70
2022/10/14 04:51:28;;;;;;;;;;;;;;;12.69;77.17;100970.56;5069728;28;21463;-70
2022/10/14 04:53:54;;;;;;;;;;;;;;;12.78;77.39;100984.13;5058405;28;19924;-70
2022/10/14 04:56:22;;;;;;;;;;;;;;;12.88;77.14;100977.41;5082169;28;19947;-70
2022/10/14 04:58:48;;;;;;;;;;;;;;;12.85;76.72;100970.53;5089982;28;20412;-69
2022/10/14 05:01:14;;;;;;;;;;;;;;;12.68;76.86;100974.13;5062344;28;19931;-69
2022/10/14 05:03:40;;;;;;;;;;;;;;;12.87;76.84;100973.06;5079625;28;19927;-69
2022/10/14 05:06:07;;;;;;;;;;;;;;;12.85;76.69;100974.94;5071493;28;20349;-69
2022/10/14 05:08:33;;;;;;;;;;;;;;;12.77;76.84;100974.53;5060540;28;19931;-69
2022/10/14 05:11:00;;;;;;;;;;;;;;;12.89;76.24;100973.84;5069211;28;19939;-71
2022/10/14 05:13:27;;;;;;;;;;;;;;;12.77;76.89;100972.75;5068535;28;19928;-69
2022/10/14 05:15:54;;;;;;;;;;;;;;;12.54;78.15;100976.69;5059956;28;19928;-69
2022/10/14 05:18:20;;;;;;;;;;;;;;;12.61;78.39;100978.03;5069800;28;19924;-69
2022/10/14 05:20:46;;;;;;;;;;;;;;;12.66;78.85;100976.00;5069783;28;20391;-69
2022/10/14 05:23:13;;;;;;;;;;;;;;;12.52;79.53;100975.94;5061656;28;19924;-69
2022/10/14 05:25:39;;;;;;;;;;;;;;;12.81;78.47;100978.69;5068951;28;20087;-69
2022/10/14 05:28:06;;;;;;;;;;;;;;;13.07;77.49;100976.25;5068643;28;19928;-69
2022/10/14 05:30:33;;;;;;;;;;;;;;;13.24;76.98;100971.81;5069404;28;19928;-69
2022/10/14 05:33:00;;;;;;;;;;;;;;;13.40;76.13;100967.34;5069613;28;19983;-69
2022/10/14 05:35:26;;;;;;;;;;;;;;;13.49;75.29;100964.97;5068227;28;19928;-69
2022/10/14 05:37:54;;;;;;;;;;;;;;;13.36;75.68;100966.66;5070287;28;19928;-69
2022/10/14 05:40:20;;;;;;;;;;;;;;;13.41;75.45;100959.34;5067666;28;19925;-69
2022/10/14 05:42:46;;;;;;;;;;;;;;;12.89;77.72;100964.16;5062194;28;20555;-69
2022/10/14 05:45:13;;;;;;;;;;;;;;;13.11;77.22;100964.66;5068681;28;19931;-69
2022/10/14 05:47:42;;;;;;;;;;;;;;;13.15;76.78;100967.94;5058271;28;19928;-69
2022/10/14 05:50:09;;;;;;;;;;;;;;;13.18;76.67;100975.66;5068881;28;19924;-69
2022/10/14 05:52:35;;;;;;;;;;;;;;;13.27;76.15;100974.25;5058772;28;19928;-69
2022/10/14 05:55:01;;;;;;;;;;;;;;;13.42;75.78;100961.03;5061114;28;20333;-69
2022/10/14 05:57:28;;;;;;;;;;;;;;;13.51;75.65;100967.53;5068372;28;19967;-69
2022/10/14 05:59:54;;;;;;;;;;;;;;;13.24;76.23;100962.13;5068758;28;19924;-69
2022/10/14 06:02:20;;;;;;;;;;;;;;;13.18;76.60;100972.16;5057093;28;19986;-69
2022/10/14 06:04:48;;;;;;;;;;;;;;;13.05;77.42;100975.47;5067839;28;20406;-69
2022/10/14 06:07:14;;;;;;;;;;;;;;;12.85;78.61;100974.94;5067879;28;19924;-69
2022/10/14 06:09:41;;;;;;;;;;;;;;;12.91;78.48;100979.84;5055405;28;19932;-69
2022/10/14 06:12:08;;;;;;;;;;;;;;;13.02;78.28;100980.94;5067355;28;19924;-69
2022/10/14 06:14:35;;;;;;;;;;;;;;;13.13;78.08;100977.69;5069181;28;19966;-69
2022/10/14 06:17:02;;;;;;;;;;;;;;;13.21;77.57;100980.75;5058141;28;20030;-69
2022/10/14 06:19:30;;;;;;;;;;;;;;;13.38;77.04;100983.22;5066621;28;19924;-69
2022/10/14 06:21:57;;;;;;;;;;;;;;;13.53;76.56;100977.03;5066622;28;20276;-69
2022/10/14 06:24:24;;;;;;;;;;;;;;;13.21;78.16;100986.00;5057634;28;20072;-69
2022/10/14 06:26:50;;;;;;;;;;;;;;;13.48;77.80;100981.75;5067409;28;19928;-69
2022/10/14 06:29:16;;;;;;;;;;;;;;;13.50;77.50;100979.84;5068252;28;19947;-69
2022/10/14 06:31:43;;;;;;;;;;;;;;;13.61;77.45;100987.13;5048906;28;19932;-69
2022/10/14 06:34:09;;;;;;;;;;;;;;;13.83;77.08;100991.94;5067185;28;20283;-69
2022/10/14 06:36:36;;;;;;;;;;;;;;;13.91;77.02;100992.31;5069234;28;20368;-67
2022/10/14 06:39:04;;;;;;;;;;;;;;;13.86;77.10;100984.69;5057967;28;19924;-64
2022/10/14 06:41:31;;;;;;;;;;;;;;;13.75;77.39;100979.22;5067901;28;19928;-64
2022/10/14 06:43:58;;;;;;;;;;;;;;;13.41;79.90;100987.47;5068872;28;20011;-63
2022/10/14 06:46:24;;;;;;;;;;;;;;;13.67;80.13;100991.19;5057624;28;19931;-63
2022/10/14 06:48:51;;;;;;;;;;;;;;;13.89;79.05;100991.56;5066751;28;20069;-63
2022/10/14 06:51:17;;;;;;;;;;;;;;;13.56;80.64;100997.91;5067942;28;19928;-63
2022/10/14 06:53:44;;;;;;;;;;;;;;;13.89;79.95;100999.47;5057660;28;19985;-64
2022/10/14 06:56:11;;;;;;;;;;;;;;;13.82;80.74;100998.16;5059720;28;20002;-64
2022/10/14 06:58:38;;;;;;;;;;;;;;;14.28;79.82;100997.00;5067483;28;19934;-64
2022/10/14 07:01:05;;;;;;;;;;;;;;;14.72;78.93;100985.41;5058292;28;19947;-64
2022/10/14 07:03:35;;;;;;;;;;;;;;;14.92;77.89;100982.34;5066070;28;19924;-64
2022/10/14 07:06:02;;;;;;;;;;;;;;;15.25;76.09;100984.53;5066987;28;19924;-64
2022/10/14 07:08:29;;;;;;;;;;;;;;;14.95;76.85;100992.69;5057794;28;19931;-64
2022/10/14 07:10:55;;;;;;;;;;;;;;;15.17;76.79;100992.97;5066146;28;20389;-64
2022/10/14 07:13:23;;;;;;;;;;;;;;;15.05;77.09;100993.78;5067554;28;19944;-64
2022/10/14 07:15:51;;;;;;;;;;;;;;;15.22;76.63;100997.94;5057345;28;20364;-64
2022/10/14 07:18:17;;;;;;;;;;;;;;;15.12;76.99;100997.69;5066122;28;19928;-64
2022/10/14 07:20:44;;;;;;;;;;;;;;;15.26;76.93;101007.38;5067171;28;19928;-64
2022/10/14 07:23:10;;;;;;;;;;;;;;;15.24;76.73;101001.31;5057654;28;20010;-65
2022/10/14 07:25:37;;;;;;;;;;;;;;;15.47;75.75;100998.84;5066906;28;20419;-65
2022/10/14 07:28:03;;;;;;;;;;;;;;;15.42;75.43;100998.28;5081688;28;19947;-65
2022/10/14 07:30:31;;;;;;;;;;;;;;;15.67;75.43;100991.38;5059890;28;19924;-66
2022/10/14 07:32:58;;;;;;;;;;;;;;;15.38;76.21;100988.88;5071552;28;20305;-66
2022/10/14 07:35:25;;;;;;;;;;;;;;;15.40;76.24;100994.91;5068765;28;20486;-66
2022/10/14 07:37:52;;;;;;;;;;;;;;;15.57;77.19;100992.00;5072837;28;19930;-66
2022/10/14 07:40:18;;;;;;;;;;;;;;;15.92;75.13;100983.44;5071073;28;19947;-66
2022/10/14 07:42:44;;;;;;;;;;;;;;;16.15;76.21;100987.13;5067081;28;20291;-67
2022/10/14 07:45:14;;;;;;;;;;;;;;;16.62;74.77;100989.03;5061404;28;19928;-67
2022/10/14 07:47:42;;;;;;;;;;;;;;;17.02;74.15;100985.97;5070568;28;19924;-67
2022/10/14 07:50:09;;;;;;;;;;;;;;;16.79;72.07;100980.69;5072145;28;19924;-67
2022/10/14 07:52:35;;;;;;;;;;;;;;;16.92;74.50;100968.25;5061947;28;20446;-67
2022/10/14 07:55:01;;;;;;;;;;;;;;;17.86;68.78;100958.34;5071068;28;19924;-67
2022/10/14 07:57:28;;;;;;;;;;;;;;;18.89;68.81;100953.47;5069995;28;19947;-67
2022/10/14 07:59:54;;;;;;;;;;;;;;;19.57;66.01;100964.59;5061106;28;20295;-68
2022/10/14 08:02:20;;;;;;;;;;;;;;;19.48;63.14;100952.09;5071004;28;19931;-68
2022/10/14 08:04:51;;;;;;;;;;;;;;;19.17;64.14;100965.31;5071968;28;19948;-68
2022/10/14 08:07:18;;;;;;;;;;;;;;;19.21;65.96;100966.75;5059797;28;19924;-68
2022/10/14 08:09:44;;;;;;;;;;;;;;;20.38;63.80;100964.56;5069543;28;20467;-68
2022/10/14 08:12:10;;;;;;;;;;;;;;;20.99;60.65;100970.50;5070685;28;19928;-68
2022/10/14 08:14:37;;;;;;;;;;;;;;;20.74;60.36;100984.38;5060718;28;19935;-68
2022/10/14 08:17:03;;;;;;;;;;;;;;;21.15;59.12;100994.81;5070524;28;19931;-69
2022/10/14 08:19:29;;;;;;;;;;;;;;;21.01;60.58;100981.03;5070465;28;19924;-68
2022/10/14 08:21:57;;;;;;;;;;;;;;;20.59;60.21;100975.09;5060692;28;19924;-68
2022/10/14 08:24:23;;;;;;;;;;;;;;;20.00;60.81;100965.22;5070044;28;20368;-68
2022/10/14 08:26:50;;;;;;;;;;;;;;;20.83;59.58;100970.25;5070554;28;19935;-68
2022/10/14 08:29:17;;;;;;;;;;;;;;;21.33;58.24;100974.44;5060120;28;20387;-68
2022/10/14 08:31:43;;;;;;;;;;;;;;;20.07;62.14;100978.84;5070369;28;19924;-68
2022/10/14 08:34:10;;;;;;;;;;;;;;;19.67;63.50;100989.44;5070375;28;20387;-68
2022/10/14 08:36:36;;;;;;;;;;;;;;;19.18;65.45;100982.91;5044202;28;19936;-68
2022/10/14 08:39:05;;;;;;;;;;;;;;;18.30;68.26;100973.38;5069083;28;19924;-68
2022/10/14 08:41:38;;;;;;;;;;;;;;;18.51;68.82;100984.09;5071823;28;19931;-67
2022/10/14 08:44:10;;;;;;;;;;;;;;;18.24;69.55;100984.50;5079482;28;19943;-67
2022/10/14 08:46:38;;;;;;;;;;;;;;;18.32;69.78;100985.59;5071990;28;20326;-68
2022/10/14 08:49:09;;;;;;;;;;;;;;;18.75;68.47;100982.97;5059155;28;20287;-68
2022/10/14 08:51:36;;;;;;;;;;;;;;;19.12;68.93;100988.75;5069712;28;19928;-69
2022/10/14 08:54:08;;;;;;;;;;;;;;;19.76;66.12;100986.84;5066575;28;20299;-69
2022/10/14 08:56:36;;;;;;;;;;;;;;;19.84;65.21;100972.88;5059926;28;20343;-69
2022/10/14 08:59:06;;;;;;;;;;;;;;;19.26;65.38;100987.59;5069275;28;20445;-69
2022/10/14 09:01:33;;;;;;;;;;;;;;;19.18;66.75;100984.75;5070311;28;19931;-69
2022/10/14 09:04:02;;;;;;;;;;;;;;;19.17;67.19;100983.91;5059882;28;19947;-69
2022/10/14 09:06:29;;;;;;;;;;;;;;;19.14;66.54;100986.81;5068588;28;20303;-69
2022/10/14 09:08:57;;;;;;;;;;;;;;;19.36;66.79;100980.56;5070157;28;19924;-69
2022/10/14 09:11:26;;;;;;;;;;;;;;;19.58;65.35;100979.59;5062920;28;20459;-68
2022/10/14 09:13:55;;;;;;;;;;;;;;;19.77;65.80;100967.22;5068177;28;19924;-68
2022/10/14 09:16:22;;;;;;;;;;;;;;;19.77;65.17;100969.06;5059462;28;20299;-70
2022/10/14 09:18:50;;;;;;;;;;;;;;;20.10;64.11;100963.44;5079536;28;20428;-68
2022/10/14 09:21:37;;;;;;;;;;;;;;;20.16;63.96;100973.56;5088502;28;19992;-68
2022/10/14 09:24:16;;;;;;;;;;;;;;;19.77;64.15;100966.41;5073304;28;19924;-68
2022/10/14 09:26:45;;;;;;;;;;;;;;;19.86;63.93;100966.44;5069219;28;19950;-68
2022/10/14 09:29:19;;;;;;;;;;;;;;;20.26;62.09;100955.81;5059105;28;19924;-68
2022/10/14 09:31:45;;;;;;;;;;;;;;;20.63;62.07;100952.53;5072946;28;19923;-68
2022/10/14 09:34:16;;;;;;;;;;;;;;;20.33;61.41;100962.28;5063790;28;19924;-68
2022/10/14 09:36:43;;;;;;;;;;;;;;;20.46;61.21;100953.22;5069093;28;19939;-68
2022/10/14 09:39:11;;;;;;;;;;;;;;;20.50;61.39;100955.47;5068843;28;20383;-68
2022/10/14 09:41:38;;;;;;;;;;;;;;;20.07;61.94;100947.75;5059136;28;19924;-69
2022/10/14 09:44:17;;;;;;;;;;;;;;;20.48;60.27;100949.44;5070263;28;19924;-68
2022/10/14 09:46:46;;;;;;;;;;;;;;;20.51;59.85;100951.00;5072488;28;20284;-68
2022/10/14 09:49:16;;;;;;;;;;;;;;;20.49;60.34;100956.44;5064550;28;19940;-68
2022/10/14 09:51:43;;;;;;;;;;;;;;;20.38;60.35;100954.75;5069232;28;19924;-69
2022/10/14 09:54:20;;;;;;;;;;;;;;;20.39;61.37;100959.09;5062494;28;19935;-68
2022/10/14 09:56:48;;;;;;;;;;;;;;;20.46;61.17;100962.06;5070478;28;19939;-69
2022/10/14 09:59:17;;;;;;;;;;;;;;;20.49;60.30;100958.28;5069516;28;20391;-68
2022/10/14 10:01:49;;;;;;;;;;;;;;;20.01;61.36;100947.44;5060179;28;19932;-68
2022/10/14 10:04:24;;;;;;;;;;;;;;;19.85;62.68;100956.78;5066771;28;21217;-68
2022/10/14 10:06:51;;;;;;;;;;;;;;;19.74;62.78;100943.56;5050386;28;19928;-68
2022/10/14 10:09:18;;;;;;;;;;;;;;;20.03;62.75;100938.34;5067839;28;20775;-68
2022/10/14 10:11:45;;;;;;;;;;;;;;;20.05;62.17;100941.72;5068062;28;19924;-68
2022/10/14 10:14:17;;;;;;;;;;;;;;;20.05;61.49;100941.72;5052954;28;19939;-68
2022/10/14 10:16:44;;;;;;;;;;;;;;;20.20;61.99;100945.72;5064273;28;19932;-68
2022/10/14 10:19:20;;;;;;;;;;;;;;;20.04;61.50;100945.34;5060215;28;19928;-67
2022/10/14 10:21:46;;;;;;;;;;;;;;;20.35;61.12;100949.69;5047598;28;19940;-67
2022/10/14 10:24:20;;;;;;;;;;;;;;;20.64;61.60;100941.75;5059422;28;20341;-67
2022/10/14 10:26:47;;;;;;;;;;;;;;;20.64;60.93;100944.41;5058724;28;19981;-67
2022/10/14 10:29:23;;;;;;;;;;;;;;;20.76;59.47;100932.66;5068237;28;19931;-67
2022/10/14 10:31:54;;;;;;;;;;;;;;;20.79;59.51;100935.03;5068489;28;19935;-67
2022/10/14 10:34:46;;;;;;;;;;;;;;;21.17;58.70;100930.69;5059180;28;19951;-67
2022/10/14 10:37:21;;;;;;;;;;;;;;;21.43;57.74;100920.25;5051828;28;19924;-67
2022/10/14 10:39:53;;;;;;;;;;;;;;;21.11;56.74;100918.75;5067124;28;20388;-68
2022/10/14 10:42:23;;;;;;;;;;;;;;;20.66;59.88;100907.81;5067282;28;19978;-67
2022/10/14 10:44:59;;;;;;;;;;;;;;;20.89;59.70;100903.88;5057360;28;20322;-67
2022/10/14 10:47:31;;;;;;;;;;;;;;;21.21;59.66;100895.56;5067518;28;20327;-67
2022/10/14 10:50:08;;;;;;;;;;;;;;;21.44;56.29;100895.25;5056612;28;19928;-67
2022/10/14 10:52:43;;;;;;;;;;;;;;;21.66;59.37;100894.88;5066381;28;19968;-67
2022/10/14 10:55:16;;;;;;;;;;;;;;;21.90;56.64;100886.34;5057507;28;19928;-67
2022/10/14 10:57:48;;;;;;;;;;;;;;;22.36;54.24;100882.75;5066450;28;20380;-67
2022/10/14 11:00:19;;;;;;;;;;;;;;;22.63;53.75;100870.16;5067087;28;19924;-67
2022/10/14 11:03:00;;;;;;;;;;;;;;;23.24;55.92;100872.00;5062282;28;19931;-67
2022/10/14 11:05:39;;;;;;;;;;;;;;;22.56;52.67;100873.56;5067589;28;19928;-67
2022/10/14 11:13:56;;;;;;;;;;;;;;;22.54;54.48;100859.53;5006630;28;20388;-67
2022/10/14 11:16:26;;;;;;;;;;;;;;;22.18;55.20;100843.47;5055374;28;20693;-67
2022/10/14 11:18:56;;;;;;;;;;;;;;;21.86;52.90;100845.78;5067551;28;19924;-67
2022/10/14 11:21:29;;;;;;;;;;;;;;;21.22;56.87;100837.75;5057036;28;19924;-67
2022/10/14 11:24:00;;;;;;;;;;;;;;;22.41;55.47;100843.03;5068052;28;19932;-67
2022/10/14 11:26:33;;;;;;;;;;;;;;;23.37;53.59;100831.41;5068355;28;19931;-68
2022/10/14 11:29:04;;;;;;;;;;;;;;;23.90;50.09;100826.66;5067399;28;20070;-67
2022/10/14 11:31:38;;;;;;;;;;;;;;;23.48;50.84;100821.31;5081865;28;19924;-68
2022/10/14 11:34:14;;;;;;;;;;;;;;;23.59;51.12;100823.69;5077339;28;19924;-68
2022/10/14 11:36:44;;;;;;;;;;;;;;;23.24;48.96;100830.00;5067149;28;19928;-68
2022/10/14 11:39:19;;;;;;;;;;;;;;;23.11;51.87;100824.25;5056899;28;19924;-67
2022/10/14 11:41:55;;;;;;;;;;;;;;;23.21;49.90;100827.66;5066654;28;19931;-67
2022/10/14 11:44:26;;;;;;;;;;;;;;;23.25;51.04;100812.97;5067987;28;19924;-67
2022/10/14 11:46:55;;;;;;;;;;;;;;;23.06;50.75;100823.06;5066931;28;20379;-67
2022/10/14 11:49:24;;;;;;;;;;;;;;;22.47;50.42;100818.41;5065883;28;20310;-67
2022/10/14 11:51:52;;;;;;;;;;;;;;;22.25;51.59;100811.66;5057742;28;19935;-67
2022/10/14 11:54:24;;;;;;;;;;;;;;;21.70;51.94;100809.03;5068290;28;20045;-67
2022/10/14 11:56:54;;;;;;;;;;;;;;;21.61;51.99;100812.63;5062895;28;19924;-67
2022/10/14 11:59:36;;;;;;;;;;;;;;;21.09;53.53;100806.06;5056791;28;19943;-67
2022/10/14 12:02:11;;;;;;;;;;;;;;;21.40;52.53;100804.00;5065578;28;19924;-67
2022/10/14 12:04:40;;;;;;;;;;;;;;;20.67;54.28;100815.38;5063765;28;20342;-68
2022/10/14 12:07:10;;;;;;;;;;;;;;;20.71;56.30;100812.31;5066743;28;20406;-67
2022/10/14 12:09:38;;;;;;;;;;;;;;;20.84;55.47;100798.69;5062699;28;20137;-67
2022/10/14 12:12:07;;;;;;;;;;;;;;;20.99;54.82;100804.41;5067461;28;19924;-68
2022/10/14 12:14:36;;;;;;;;;;;;;;;20.76;54.71;100794.06;5061111;28;19924;-68
2022/10/14 12:17:06;;;;;;;;;;;;;;;20.60;55.48;100788.47;5052793;28;20387;-68
2022/10/14 12:19:32;;;;;;;;;;;;;;;20.62;55.91;100797.16;5082344;28;19931;-68
2022/10/14 12:22:04;;;;;;;;;;;;;;;19.90;56.78;100789.56;5088822;28;20375;-68
2022/10/14 12:24:33;;;;;;;;;;;;;;;19.79;57.71;100788.84;5066947;28;19924;-68
2022/10/14 12:27:01;;;;;;;;;;;;;;;20.42;57.20;100779.53;5068581;28;20371;-68
2022/10/14 12:29:29;;;;;;;;;;;;;;;20.97;54.10;100777.03;5070397;28;19977;-68
2022/10/14 12:32:18;;;;;;;;;;;;;;;20.78;55.91;100784.09;5056545;28;19982;-68
2022/10/14 12:34:46;;;;;;;;;;;;;;;20.54;53.52;100783.72;5070541;28;20480;-68
2022/10/14 12:37:33;;;;;;;;;;;;;;;20.64;54.46;100778.38;5062073;28;19930;-68
2022/10/14 12:40:14;;;;;;;;;;;;;;;21.08;51.72;100771.53;5070512;28;20040;-68
2022/10/14 12:42:53;;;;;;;;;;;;;;;21.37;50.82;100772.28;5070601;28;19954;-68
2022/10/14 12:45:21;;;;;;;;;;;;;;;21.52;52.15;100777.97;5061297;28;19931;-68
2022/10/14 12:48:00;;;;;;;;;;;;;;;21.73;51.62;100773.19;5070418;28;19932;-69